createdAt,value
2019-06-15T00:01:10.409Z,23.90
2019-06-15T00:03:38.288Z,23.90
2019-06-15T00:06:06.097Z,24.00
2019-06-15T00:08:33.915Z,24.00
2019-06-15T00:11:01.746Z,23.90
2019-06-15T00:13:29.591Z,23.90
2019-06-15T00:15:58.065Z,23.90
2019-06-15T00:18:25.876Z,23.90
2019-06-15T00:20:53.773Z,23.80
2019-06-15T00:23:21.618Z,23.80
2019-06-15T00:25:49.434Z,23.80
2019-06-15T00:28:17.257Z,23.70
2019-06-15T00:30:45.037Z,23.70
2019-06-15T00:33:12.902Z,23.70
2019-06-15T00:35:40.772Z,23.60
2019-06-15T00:38:08.578Z,23.60
2019-06-15T00:40:36.406Z,23.50
2019-06-15T00:43:07.279Z,23.50
2019-06-15T00:45:35.162Z,23.50
2019-06-15T00:48:03.028Z,23.40
2019-06-15T00:50:30.841Z,23.40
2019-06-15T00:52:58.626Z,23.30
2019-06-15T00:55:27.267Z,23.30
2019-06-15T00:57:55.043Z,23.20
2019-06-15T01:00:23.072Z,23.10
2019-06-15T01:02:50.813Z,23.10
2019-06-15T01:05:18.619Z,23.10
2019-06-15T01:07:46.402Z,23.00
2019-06-15T01:10:16.207Z,23.00
2019-06-15T01:12:44.013Z,23.00
2019-06-15T01:15:13.753Z,23.00
2019-06-15T01:17:41.552Z,23.10
2019-06-15T01:20:10.673Z,23.10
2019-06-15T01:22:38.576Z,23.10
2019-06-15T01:25:08.863Z,23.10
2019-06-15T01:27:37.055Z,23.10
2019-06-15T01:30:06.651Z,23.10
2019-06-15T01:32:34.563Z,23.00
2019-06-15T01:35:02.479Z,22.90
2019-06-15T01:37:30.450Z,22.90
2019-06-15T01:39:58.249Z,23.00
2019-06-15T01:42:26.059Z,23.00
2019-06-15T01:44:53.859Z,23.00
2019-06-15T01:47:21.687Z,23.10
2019-06-15T01:49:49.461Z,23.20
2019-06-15T01:52:17.245Z,23.20
2019-06-15T01:54:45.042Z,23.40
2019-06-15T01:57:12.826Z,23.50
2019-06-15T01:59:40.607Z,23.60
2019-06-15T02:02:08.405Z,23.70
2019-06-15T02:04:36.205Z,23.80
2019-06-15T02:07:04.099Z,23.90
2019-06-15T02:09:31.893Z,24.00
2019-06-15T02:11:59.737Z,24.00
2019-06-15T02:14:27.533Z,24.00
2019-06-15T02:16:55.344Z,24.00
2019-06-15T02:19:23.149Z,24.10
2019-06-15T02:21:51.009Z,24.10
2019-06-15T02:24:18.788Z,24.10
2019-06-15T02:26:46.650Z,24.10
2019-06-15T02:29:14.461Z,24.00
2019-06-15T02:31:42.257Z,24.00
2019-06-15T02:34:10.176Z,23.90
2019-06-15T02:36:37.997Z,23.90
2019-06-15T02:39:06.964Z,23.80
2019-06-15T02:41:34.738Z,23.80
2019-06-15T02:44:03.127Z,23.80
2019-06-15T02:46:30.924Z,23.70
2019-06-15T02:48:58.679Z,23.60
2019-06-15T02:51:26.983Z,23.60
2019-06-15T02:53:54.779Z,23.50
2019-06-15T02:56:22.600Z,23.50
2019-06-15T02:58:50.365Z,23.40
2019-06-15T03:01:18.185Z,23.30
2019-06-15T03:03:45.958Z,23.30
2019-06-15T03:06:14.668Z,23.30
2019-06-15T03:08:43.062Z,23.30
2019-06-15T03:11:10.849Z,23.20
2019-06-15T03:13:41.699Z,23.20
2019-06-15T03:16:09.502Z,23.20
2019-06-15T03:18:37.310Z,23.10
2019-06-15T03:21:05.085Z,23.10
2019-06-15T03:23:32.976Z,23.10
2019-06-15T03:26:05.458Z,23.00
2019-06-15T03:28:30.480Z,23.00
2019-06-15T03:30:58.275Z,23.00
2019-06-15T03:33:26.233Z,23.00
2019-06-15T03:35:54.038Z,23.00
2019-06-15T03:38:21.847Z,23.10
2019-06-15T03:40:49.631Z,23.00
2019-06-15T03:43:17.413Z,23.00
2019-06-15T03:45:45.214Z,23.00
2019-06-15T03:48:13.018Z,23.00
2019-06-15T03:50:41.831Z,23.00
2019-06-15T03:53:09.711Z,23.00
2019-06-15T03:55:40.469Z,22.90
2019-06-15T03:58:07.577Z,22.80
2019-06-15T04:00:46.375Z,22.80
2019-06-15T04:03:15.186Z,22.70
2019-06-15T04:05:43.304Z,22.70
2019-06-15T04:08:11.120Z,22.70
2019-06-15T04:10:39.014Z,22.70
2019-06-15T04:13:06.800Z,22.70
2019-06-15T04:15:34.563Z,22.70
2019-06-15T04:18:02.352Z,22.70
2019-06-15T04:20:30.746Z,22.70
2019-06-15T04:22:58.548Z,22.70
2019-06-15T04:25:26.451Z,22.70
2019-06-15T04:27:54.428Z,22.70
2019-06-15T04:30:22.225Z,22.70
2019-06-15T04:32:50.000Z,22.70
2019-06-15T04:35:17.808Z,22.70
2019-06-15T04:37:45.643Z,22.80
2019-06-15T04:40:15.489Z,22.80
2019-06-15T04:42:43.255Z,22.90
2019-06-15T04:45:11.278Z,22.90
2019-06-15T04:47:39.232Z,23.00
2019-06-15T04:50:07.137Z,23.00
2019-06-15T04:52:34.955Z,23.10
2019-06-15T04:55:03.262Z,23.10
2019-06-15T04:57:31.104Z,23.20
2019-06-15T04:59:58.886Z,23.10
2019-06-15T05:02:27.485Z,23.10
2019-06-15T05:04:55.687Z,23.00
2019-06-15T05:07:23.567Z,22.90
2019-06-15T05:09:51.384Z,22.90
2019-06-15T05:12:20.487Z,23.00
2019-06-15T05:14:48.322Z,22.90
2019-06-15T05:17:16.212Z,23.00
2019-06-15T05:19:44.044Z,23.10
2019-06-15T05:22:12.243Z,23.10
2019-06-15T05:24:40.389Z,23.20
2019-06-15T05:27:08.170Z,23.30
2019-06-15T05:29:35.986Z,23.30
2019-06-15T05:32:03.787Z,23.40
2019-06-15T05:34:31.603Z,23.50
2019-06-15T05:36:59.412Z,23.60
2019-06-15T05:39:29.974Z,23.70
2019-06-15T05:41:59.714Z,23.70
2019-06-15T05:44:27.648Z,23.60
2019-06-15T05:46:55.453Z,23.60
2019-06-15T05:49:23.338Z,23.70
2019-06-15T05:51:51.190Z,23.80
2019-06-15T05:54:18.993Z,23.90
2019-06-15T05:56:46.858Z,24.00
2019-06-15T05:59:14.635Z,24.10
2019-06-15T06:01:42.458Z,24.20
2019-06-15T06:04:11.053Z,24.30
2019-06-15T06:06:38.873Z,24.30
2019-06-15T06:09:07.051Z,24.50
2019-06-15T06:11:34.854Z,24.60
2019-06-15T06:14:03.136Z,24.60
2019-06-15T06:16:31.021Z,24.60
2019-06-15T06:18:58.817Z,24.60
2019-06-15T06:21:26.638Z,24.50
2019-06-15T06:23:54.491Z,24.50
2019-06-15T06:26:22.324Z,24.50
2019-06-15T06:28:57.181Z,24.50
2019-06-15T06:31:19.867Z,24.50
2019-06-15T06:33:47.674Z,24.60
2019-06-15T06:36:15.467Z,24.90
2019-06-15T06:38:43.300Z,25.20
2019-06-15T06:41:13.454Z,25.50
2019-06-15T06:43:40.759Z,25.90
2019-06-15T06:46:08.586Z,26.30
2019-06-15T06:48:36.446Z,26.80
2019-06-15T06:51:04.335Z,27.40
2019-06-15T06:53:32.278Z,27.80
2019-06-15T06:56:00.112Z,28.10
2019-06-15T06:58:27.945Z,28.50
2019-06-15T07:00:55.782Z,28.90
2019-06-15T07:03:23.583Z,29.70
2019-06-15T07:05:51.489Z,30.70
2019-06-15T07:08:19.319Z,31.00
2019-06-15T07:10:47.124Z,31.20
2019-06-15T07:13:14.922Z,31.40
2019-06-15T07:15:43.046Z,31.80
2019-06-15T07:18:10.915Z,31.50
2019-06-15T07:20:38.766Z,31.40
2019-06-15T07:23:06.578Z,31.10
2019-06-15T07:25:34.435Z,31.30
2019-06-15T07:28:07.937Z,32.00
2019-06-15T07:30:32.015Z,31.80
2019-06-15T07:33:00.363Z,32.70
2019-06-15T07:37:56.007Z,33.90
2019-06-15T07:40:23.834Z,33.30
2019-06-15T07:42:51.758Z,34.10
2019-06-15T07:45:19.642Z,34.60
2019-06-15T07:47:47.549Z,34.70
2019-06-15T07:50:15.461Z,34.90
2019-06-15T07:52:43.251Z,35.40
2019-06-15T07:55:11.769Z,35.80
2019-06-15T07:57:39.598Z,36.70
2019-06-15T08:00:09.445Z,36.80
2019-06-15T08:02:37.272Z,37.20
2019-06-15T08:05:06.490Z,37.60
2019-06-15T08:07:34.877Z,37.80
2019-06-15T08:10:03.065Z,37.90
2019-06-15T08:12:30.906Z,37.90
2019-06-15T08:14:58.754Z,38.50
2019-06-15T08:17:26.678Z,39.10
2019-06-15T08:19:54.497Z,39.80
2019-06-15T08:22:22.342Z,40.60
2019-06-15T08:24:50.203Z,41.20
2019-06-15T08:27:18.134Z,41.70
2019-06-15T08:29:45.995Z,42.30
2019-06-15T08:32:13.797Z,42.70
2019-06-15T08:34:41.606Z,42.60
2019-06-15T08:37:09.403Z,42.60
2019-06-15T08:39:37.197Z,43.10
2019-06-15T08:47:39.421Z,43.70
2019-06-15T08:50:28.507Z,44.10
2019-06-15T08:56:05.407Z,44.60
2019-06-15T08:59:09.403Z,44.90
2019-06-15T09:05:05.959Z,44.80
2019-06-15T09:08:13.440Z,44.20
2019-06-15T09:10:43.611Z,44.00
2019-06-15T09:31:06.790Z,42.30
2019-06-15T09:33:37.142Z,42.40
2019-06-15T09:36:05.461Z,43.40
2019-06-15T09:38:33.663Z,44.30
2019-06-15T18:51:50.351Z,26.30
2019-06-15T18:54:18.765Z,26.20
2019-06-15T18:57:21.421Z,26.10
2019-06-15T19:04:45.211Z,26.00
2019-06-15T20:33:38.747Z,23.50
2019-06-15T20:36:06.895Z,23.50
2019-06-15T20:38:36.339Z,23.40
2019-06-15T20:41:07.311Z,23.30
2019-06-15T20:43:36.556Z,23.30
2019-06-15T20:46:06.831Z,23.30
2019-06-15T20:48:36.325Z,23.20
2019-06-15T20:51:07.430Z,23.20
2019-06-15T20:53:36.532Z,23.10
2019-06-15T20:56:06.433Z,23.10
2019-06-15T20:58:33.468Z,23.00
2019-06-15T21:01:01.454Z,22.90
2019-06-15T21:03:29.364Z,22.90
2019-06-15T21:05:57.622Z,22.80
2019-06-15T21:08:26.698Z,22.70
2019-06-15T21:10:56.379Z,22.70
2019-06-15T21:13:26.367Z,22.60
2019-06-15T21:15:56.865Z,22.50
2019-06-15T21:18:26.059Z,22.40
2019-06-15T21:20:56.221Z,22.40
2019-06-15T21:23:26.596Z,22.30
2019-06-15T21:25:53.737Z,22.20
2019-06-15T21:28:21.650Z,22.10
2019-06-15T21:30:49.464Z,22.20
2019-06-15T21:33:17.614Z,22.10
2019-06-15T21:35:51.662Z,22.00
2019-06-15T21:38:16.456Z,22.00
2019-06-15T21:40:44.263Z,21.90
2019-06-15T21:43:12.048Z,21.90
2019-06-15T21:45:41.550Z,21.90
2019-06-15T21:48:11.729Z,21.80
2019-06-15T21:50:39.575Z,21.70
2019-06-15T21:53:07.407Z,21.60
2019-06-15T21:55:36.472Z,21.60
2019-06-15T21:58:07.300Z,21.60
2019-06-15T22:01:09.210Z,21.50
2019-06-15T22:03:37.039Z,21.50
2019-06-15T22:06:06.474Z,21.40
2019-06-15T22:08:36.894Z,21.40
2019-06-15T22:11:06.538Z,21.40
2019-06-15T22:13:34.049Z,21.30
2019-06-15T22:16:01.902Z,21.20
2019-06-15T22:18:29.706Z,21.20
2019-06-15T22:20:57.637Z,21.20
2019-06-15T22:23:26.842Z,21.10
2019-06-15T22:25:57.087Z,21.10
2019-06-15T22:28:27.080Z,21.10
2019-06-15T22:30:56.995Z,21.10
2019-06-15T22:33:26.837Z,21.00
2019-06-15T22:35:56.410Z,20.90
2019-06-15T22:38:24.030Z,20.90
2019-06-15T22:40:51.843Z,20.80
2019-06-15T22:43:19.677Z,20.80
2019-06-15T22:45:50.001Z,20.70
2019-06-15T22:48:17.227Z,20.70
2019-06-15T22:50:46.809Z,20.70
2019-06-15T22:53:16.471Z,20.70
2019-06-15T22:55:46.289Z,20.60
2019-06-15T22:58:14.277Z,20.60
2019-06-15T23:00:42.101Z,20.60
2019-06-15T23:03:09.912Z,20.50
2019-06-15T23:05:37.747Z,20.50
2019-06-15T23:08:06.931Z,20.50
2019-06-15T23:10:36.818Z,20.40
2019-06-15T23:13:06.409Z,20.50
2019-06-15T23:15:37.018Z,20.50
2019-06-15T23:18:06.589Z,20.50
2019-06-15T23:20:34.125Z,20.50
2019-06-15T23:23:01.986Z,20.40
2019-06-15T23:25:29.864Z,20.50
2019-06-15T23:27:57.650Z,20.40
2019-06-15T23:30:25.449Z,20.40
2019-06-15T23:32:56.032Z,20.40
2019-06-15T23:35:26.505Z,20.40
2019-06-15T23:37:55.878Z,20.40
2019-06-15T23:40:26.990Z,20.30
2019-06-15T23:42:56.646Z,20.30
2019-06-15T23:45:26.862Z,20.30
2019-06-15T23:47:57.181Z,20.30
2019-06-15T23:50:26.440Z,20.30
2019-06-15T23:52:54.712Z,20.30
2019-06-15T23:55:23.156Z,20.30
2019-06-15T23:57:51.069Z,20.20
